Time;durP1;ratioP1;P1;durP2;ratioP2;P2;SDS_P1;SDS_P2;PMS_P1;PMS_P2;Temp;Humidity;BMP_temperature;BMP_pressure;BME280_temperature;BME280_humidity;BME280_pressure;Samples;Min_cycle;Max_cycle;Signal;HPM_P1;HPM_P2
2021/08/13 00:01:44;;;;;;;13.65;9.65;;;;;;;19.20;73.44;100256.31;4976098;28;20097;-64
2021/08/13 00:04:28;;;;;;;17.48;9.45;;;;;;;19.20;73.59;100254.56;4961239;28;20146;-63
2021/08/13 00:07:12;;;;;;;12.68;9.20;;;;;;;19.21;73.67;100258.06;4961661;28;20129;-63
2021/08/13 00:10:01;;;;;;;10.90;7.93;;;;;;;19.22;73.60;100255.41;4961618;28;20157;-64
2021/08/13 00:12:46;;;;;;;15.02;9.45;;;;;;;19.21;73.57;100256.28;4961738;28;20142;-64
2021/08/13 00:15:30;;;;;;;14.52;10.55;;;;;;;19.22;73.51;100257.19;4975925;28;20057;-64
2021/08/13 00:18:14;;;;;;;13.73;8.85;;;;;;;19.21;73.44;100258.06;4975950;28;20462;-64
2021/08/13 00:21:00;;;;;;;13.00;9.48;;;;;;;19.22;73.65;100259.81;4975967;28;20091;-64
2021/08/13 00:23:47;;;;;;;13.07;9.15;;;;;;;19.21;73.61;100253.66;4960709;28;20053;-65
2021/08/13 00:26:31;;;;;;;15.90;9.48;;;;;;;19.21;73.75;100251.03;4961587;28;20046;-63
2021/08/13 00:29:15;;;;;;;14.68;10.38;;;;;;;19.22;73.54;100252.78;4975301;28;20533;-64
2021/08/13 00:31:59;;;;;;;11.95;9.10;;;;;;;19.23;73.78;100261.53;4961281;28;20113;-64
2021/08/13 00:34:45;;;;;;;13.13;9.52;;;;;;;19.23;73.75;100257.13;4975348;28;20125;-65
2021/08/13 00:37:30;;;;;;;16.02;9.93;;;;;;;19.22;73.66;100262.44;4960871;28;20041;-64
2021/08/13 00:40:15;;;;;;;13.82;9.52;;;;;;;19.22;73.56;100262.44;4961061;28;20122;-63
2021/08/13 00:42:59;;;;;;;13.95;9.50;;;;;;;19.23;73.72;100269.41;4975598;28;20097;-64
2021/08/13 00:45:43;;;;;;;12.13;9.32;;;;;;;19.24;73.70;100265.88;4975441;28;20584;-64
2021/08/13 00:48:27;;;;;;;15.45;9.90;;;;;;;19.23;73.90;100272.91;4975226;28;20057;-64
2021/08/13 00:51:11;;;;;;;12.23;9.00;;;;;;;19.25;73.78;100272.88;4975572;28;20062;-64
2021/08/13 00:54:00;;;;;;;;;;;;;;;19.24;73.67;100271.13;4975180;28;20089;-64
2021/08/13 00:56:44;;;;;;;12.98;8.75;;;;;;;19.23;73.83;100275.53;4975401;28;19924;-64
2021/08/13 00:59:33;;;;;;;13.60;10.00;;;;;;;19.24;73.91;100274.63;4960840;28;20536;-64
2021/08/13 01:02:17;;;;;;;13.38;8.68;;;;;;;19.25;74.13;100283.38;4960129;28;20101;-64
2021/08/13 01:05:01;;;;;;;16.88;10.32;;;;;;;19.23;74.00;100280.78;4975261;28;20046;-65
2021/08/13 01:07:45;;;;;;;18.10;9.20;;;;;;;19.23;73.97;100286.03;4974536;28;20433;-64
2021/08/13 01:10:33;;;;;;;12.35;8.90;;;;;;;19.22;73.90;100281.66;4975102;28;20461;-64
2021/08/13 01:13:34;;;;;;;15.98;10.00;;;;;;;19.20;73.92;100280.81;4960247;28;20050;-64
2021/08/13 01:16:20;;;;;;;14.23;10.68;;;;;;;19.20;73.82;100280.81;4975009;28;20482;-63
2021/08/13 01:19:20;;;;;;;14.82;10.20;;;;;;;19.18;73.90;100290.47;4974945;28;20169;-65
2021/08/13 01:22:16;;;;;;;18.70;10.93;;;;;;;19.17;73.78;100283.50;4959756;28;20054;-64
2021/08/13 01:25:03;;;;;;;15.32;11.20;;;;;;;19.14;73.80;100287.03;4975024;28;20145;-65
2021/08/13 01:27:50;;;;;;;14.98;11.02;;;;;;;19.14;73.92;100286.19;4960118;28;20113;-64
2021/08/13 01:30:39;;;;;;;13.05;10.23;;;;;;;19.13;73.86;100289.72;4974964;28;20473;-64
2021/08/13 01:33:24;;;;;;;17.73;11.88;;;;;;;19.11;74.04;100292.34;4974586;28;20051;-64
2021/08/13 01:36:10;;;;;;;21.00;13.05;;;;;;;19.10;73.83;100284.50;4974095;28;20524;-64
2021/08/13 01:39:01;;;;;;;19.65;13.55;;;;;;;19.10;73.91;100279.25;4974443;28;20078;-63
2021/08/13 01:41:48;;;;;;;19.83;13.07;;;;;;;19.08;74.17;100274.00;4960114;28;20050;-63
2021/08/13 01:44:33;;;;;;;16.05;12.63;;;;;;;19.07;73.74;100279.28;4974245;28;20050;-64
2021/08/13 01:47:17;;;;;;;18.73;13.95;;;;;;;19.07;73.95;100284.53;4960202;28;20101;-65
2021/08/13 01:50:05;;;;;;;20.08;14.25;;;;;;;19.06;74.14;100294.19;4960047;28;20053;-64
2021/08/13 01:52:50;;;;;;;27.23;14.93;;;;;;;19.06;74.17;100299.44;4959645;28;20203;-64
2021/08/13 01:55:35;;;;;;;21.02;15.02;;;;;;;19.05;74.18;100308.22;4959731;28;20046;-64
2021/08/13 01:58:21;;;;;;;18.88;14.07;;;;;;;19.03;74.25;100307.38;4974391;28;20146;-65
2021/08/13 02:01:09;;;;;;;20.60;14.40;;;;;;;19.03;74.00;100299.47;4960129;28;20057;-65
2021/08/13 02:03:53;;;;;;;20.55;14.32;;;;;;;19.02;74.18;100305.63;4954103;29;20062;-64
2021/08/13 02:06:39;;;;;;;23.00;16.08;;;;;;;19.01;73.94;100303.88;4955215;29;20058;-64
2021/08/13 02:09:23;;;;;;;23.25;15.38;;;;;;;19.00;73.70;100310.88;4955308;29;20459;-65
2021/08/13 02:12:08;;;;;;;22.77;16.05;;;;;;;19.00;74.07;100308.25;4955372;29;20062;-64
2021/08/13 02:14:52;;;;;;;22.92;16.33;;;;;;;19.00;74.12;100310.03;4955141;29;20082;-64
2021/08/13 02:17:41;;;;;;;21.23;15.45;;;;;;;18.99;74.39;100296.03;4954003;29;20082;-64
2021/08/13 02:20:27;;;;;;;19.55;14.82;;;;;;;18.97;74.37;100305.69;4953568;29;20050;-64
2021/08/13 02:23:21;;;;;;;21.63;16.52;;;;;;;18.97;74.23;100307.44;4955053;29;20153;-64
2021/08/13 02:26:05;;;;;;;24.55;16.05;;;;;;;18.96;74.20;100296.09;4955036;29;20082;-64
2021/08/13 02:28:51;;;;;;;23.20;15.30;;;;;;;18.95;74.41;100296.09;4954615;29;20528;-64
2021/08/13 02:31:36;;;;;;;24.52;16.58;;;;;;;18.94;74.23;100304.81;4954513;29;20518;-64
2021/08/13 02:34:20;;;;;;;20.42;14.82;;;;;;;18.95;74.28;100296.09;4954985;29;20074;-64
2021/08/13 02:37:30;;;;;;;20.92;16.40;;;;;;;18.94;74.21;100302.19;4954149;29;20082;-64
2021/08/13 02:40:19;;;;;;;23.50;15.57;;;;;;;18.92;74.21;100296.13;4953950;29;20110;-65
2021/08/13 02:43:06;;;;;;;22.60;14.90;;;;;;;18.91;74.42;100300.50;4954179;29;20054;-64
2021/08/13 02:45:54;;;;;;;23.02;16.23;;;;;;;18.89;74.42;100286.50;4954567;29;20054;-64
2021/08/13 02:48:40;;;;;;;22.55;16.13;;;;;;;18.89;74.49;100277.78;4955848;28;20054;-63
2021/08/13 02:51:29;;;;;;;19.30;15.07;;;;;;;18.88;74.26;100287.41;4958049;29;20570;-64
2021/08/13 02:54:24;;;;;;;20.98;14.55;;;;;;;18.87;74.47;100278.66;4956921;29;20462;-64
2021/08/13 02:57:10;;;;;;;19.02;14.18;;;;;;;18.85;74.46;100280.44;4957949;29;20483;-64
2021/08/13 02:59:57;;;;;;;20.13;15.75;;;;;;;18.85;74.59;100280.44;4958244;29;20073;-64
2021/08/13 03:02:45;;;;;;;20.73;15.70;;;;;;;18.83;74.42;100274.34;4966883;28;20061;-64
2021/08/13 03:05:30;;;;;;;22.00;16.48;;;;;;;18.82;74.49;100285.72;4962684;28;20074;-64
2021/08/13 03:08:16;;;;;;;19.85;16.05;;;;;;;18.83;74.52;100284.84;4962591;28;20053;-64
2021/08/13 03:11:03;;;;;;;23.20;16.23;;;;;;;18.83;74.59;100289.25;4976853;28;20082;-64
2021/08/13 03:13:48;;;;;;;25.05;16.58;;;;;;;18.82;74.56;100290.97;4962715;28;20121;-65
2021/08/13 03:16:33;;;;;;;21.55;16.15;;;;;;;18.81;74.60;100293.66;4977082;28;20085;-64
2021/08/13 03:19:19;;;;;;;23.05;16.48;;;;;;;18.80;74.49;100292.75;4976495;28;20058;-64
2021/08/13 03:22:03;;;;;;;19.38;15.73;;;;;;;18.78;74.67;100286.66;4962097;28;20045;-64
2021/08/13 03:24:48;;;;;;;20.50;16.08;;;;;;;18.76;74.53;100283.22;4977091;28;20108;-64
2021/08/13 03:27:35;;;;;;;22.05;15.98;;;;;;;18.76;74.42;100293.72;4962175;28;20569;-64
2021/08/13 03:30:20;;;;;;;22.02;16.52;;;;;;;18.75;74.62;100286.72;4977096;28;20072;-63
2021/08/13 03:33:04;;;;;;;21.23;15.50;;;;;;;18.74;74.58;100290.25;4962255;28;20042;-65
2021/08/13 03:35:52;;;;;;;21.65;16.48;;;;;;;18.73;74.62;100291.13;4962324;28;20126;-64
2021/08/13 03:38:40;;;;;;;21.65;15.25;;;;;;;18.72;74.80;100294.63;4976257;28;20046;-64
2021/08/13 03:41:24;;;;;;;23.40;15.70;;;;;;;18.71;74.83;100293.75;4961891;28;20048;-64
2021/08/13 03:44:08;;;;;;;23.00;16.77;;;;;;;18.70;74.73;100299.03;4976486;28;20150;-64
2021/08/13 03:46:54;;;;;;;22.98;15.98;;;;;;;18.70;74.91;100307.78;4976657;28;20130;-64
2021/08/13 03:49:38;;;;;;;23.02;16.85;;;;;;;18.69;74.61;100313.06;4976083;28;20134;-64
2021/08/13 03:52:26;;;;;;;27.27;16.42;;;;;;;18.68;74.56;100312.19;4976378;28;20054;-64
2021/08/13 03:55:13;;;;;;;21.15;16.05;;;;;;;18.67;74.98;100320.97;4961747;28;20074;-63
2021/08/13 03:57:57;;;;;;;22.48;15.95;;;;;;;18.67;74.57;100314.81;4961544;28;20057;-64
2021/08/13 04:00:43;;;;;;;21.17;16.75;;;;;;;18.65;74.57;100333.22;4976219;28;20042;-64
2021/08/13 04:03:30;;;;;;;20.42;16.35;;;;;;;18.63;74.77;100339.38;4961306;28;20085;-64
2021/08/13 04:06:19;;;;;;;27.38;16.70;;;;;;;18.62;74.65;100350.75;4976189;28;20050;-64
2021/08/13 04:09:06;;;;;;;20.60;16.17;;;;;;;18.58;74.79;100335.94;4975047;28;20082;-64
2021/08/13 04:11:50;;;;;;;23.60;17.35;;;;;;;18.56;74.80;100330.69;4961801;28;20097;-64
2021/08/13 04:14:34;;;;;;;24.35;17.95;;;;;;;18.56;74.73;100326.34;4975947;28;20042;-65
2021/08/13 04:17:18;;;;;;;27.50;18.05;;;;;;;18.55;74.75;100331.59;4975671;28;20090;-64
2021/08/13 04:20:04;;;;;;;24.48;18.02;;;;;;;18.54;74.78;100338.59;4976576;28;20057;-64
2021/08/13 04:22:48;;;;;;;23.98;18.63;;;;;;;18.54;74.94;100335.09;4975952;28;20053;-64
2021/08/13 04:25:35;;;;;;;21.67;18.40;;;;;;;18.53;74.92;100320.28;4975858;28;20073;-65
2021/08/13 04:28:19;;;;;;;26.67;17.65;;;;;;;18.52;75.00;100319.38;4960829;28;20130;-64
2021/08/13 04:31:05;;;;;;;26.90;19.63;;;;;;;18.51;74.55;100333.38;4975400;28;20054;-64
2021/08/13 04:33:50;;;;;;;24.90;19.45;;;;;;;18.50;74.75;100350.03;4975570;28;20101;-63
2021/08/13 04:36:39;;;;;;;25.80;18.88;;;;;;;18.48;74.71;100351.78;4960717;28;20105;-64
2021/08/13 04:39:23;;;;;;;26.13;20.00;;;;;;;18.47;74.78;100357.91;4975831;28;20058;-63
2021/08/13 04:42:07;;;;;;;25.77;19.08;;;;;;;18.47;74.77;100359.69;4975295;28;20160;-64
2021/08/13 04:44:53;;;;;;;27.65;20.23;;;;;;;18.46;74.67;100361.44;4975253;28;20050;-64
2021/08/13 04:47:37;;;;;;;25.65;19.55;;;;;;;18.45;74.80;100358.84;4975686;28;20078;-64
2021/08/13 04:50:21;;;;;;;28.95;21.00;;;;;;;18.44;74.80;100368.47;4975349;28;20057;-64
2021/08/13 04:53:05;;;;;;;28.70;21.33;;;;;;;18.44;74.78;100368.47;4975239;28;20573;-64
2021/08/13 04:55:52;;;;;;;30.33;21.98;;;;;;;18.44;74.84;100372.84;4974965;28;20062;-64
2021/08/13 04:58:36;;;;;;;27.90;21.65;;;;;;;18.43;74.98;100372.00;4975113;28;20141;-64
2021/08/13 05:01:20;;;;;;;27.98;20.92;;;;;;;18.41;74.84;100371.97;4974739;28;20517;-64
2021/08/13 05:04:04;;;;;;;28.88;21.15;;;;;;;18.41;74.90;100374.59;4960811;28;20045;-64
2021/08/13 05:06:48;;;;;;;29.23;22.08;;;;;;;18.41;75.00;100371.13;4974713;28;20054;-64
2021/08/13 05:09:35;;;;;;;30.67;22.95;;;;;;;18.41;74.90;100373.75;4975170;28;20054;-63
2021/08/13 05:12:19;;;;;;;28.95;22.30;;;;;;;18.41;75.15;100379.84;4959656;28;20560;-64
2021/08/13 05:15:04;;;;;;;27.45;21.65;;;;;;;18.41;74.96;100381.63;4960432;28;20101;-63
2021/08/13 05:17:48;;;;;;;30.98;23.55;;;;;;;18.40;75.03;100388.63;4960223;28;20114;-63
2021/08/13 05:20:32;;;;;;;32.08;22.17;;;;;;;18.40;75.04;100390.38;4974310;28;20049;-63
2021/08/13 05:23:19;;;;;;;31.80;22.70;;;;;;;18.40;74.98;100395.63;4974508;28;20533;-64
2021/08/13 05:26:06;;;;;;;29.45;23.00;;;;;;;18.40;74.90;100399.09;4974680;28;20077;-64
2021/08/13 05:28:52;;;;;;;33.35;23.27;;;;;;;18.41;75.12;100402.63;4959902;28;20050;-63
2021/08/13 05:31:36;;;;;;;31.45;23.48;;;;;;;18.42;74.93;100406.97;4974664;28;20441;-64
2021/08/13 05:34:20;;;;;;;31.95;22.92;;;;;;;18.41;75.21;100419.22;4974700;28;20058;-65
2021/08/13 05:37:04;;;;;;;34.85;24.20;;;;;;;18.42;75.28;100428.84;4974931;28;20414;-65
2021/08/13 05:39:51;;;;;;;31.20;23.77;;;;;;;18.41;75.19;100424.47;4974967;28;20089;-63
2021/08/13 05:42:38;;;;;;;30.42;23.38;;;;;;;18.43;75.13;100421.84;4974512;28;20042;-64
2021/08/13 05:45:21;;;;;;;36.95;22.27;;;;;;;18.45;75.40;100429.69;4974647;28;20105;-65
2021/08/13 05:48:06;;;;;;;33.63;23.63;;;;;;;18.44;75.21;100423.59;4974470;28;20057;-65
2021/08/13 05:50:52;;;;;;;34.08;22.38;;;;;;;18.44;75.13;100422.69;4960175;28;20505;-64
2021/08/13 05:53:36;;;;;;;27.17;22.02;;;;;;;18.45;75.28;100424.44;4959844;28;20105;-63
2021/08/13 05:56:20;;;;;;;31.02;22.73;;;;;;;18.46;75.29;100434.91;4974316;28;20054;-65
2021/08/13 05:59:04;;;;;;;36.53;22.63;;;;;;;18.47;75.31;100441.03;4974422;28;20073;-64
2021/08/13 06:01:48;;;;;;;27.50;20.38;;;;;;;18.46;75.25;100436.69;4974139;28;20515;-65
2021/08/13 06:04:32;;;;;;;30.95;22.20;;;;;;;18.48;75.25;100432.28;4974196;28;20074;-64
2021/08/13 06:07:16;;;;;;;31.25;22.08;;;;;;;18.47;75.32;100436.66;4974381;28;20093;-63
2021/08/13 06:09:59;;;;;;;29.55;21.83;;;;;;;18.47;75.37;100446.28;4974297;28;20526;-64
2021/08/13 06:12:44;;;;;;;28.90;20.27;;;;;;;18.47;75.45;100435.78;4974643;28;20568;-64
2021/08/13 06:15:28;;;;;;;;;;;;;;;18.45;75.19;100445.44;4974712;28;20068;-64
2021/08/13 06:18:12;;;;;;;28.38;19.33;;;;;;;18.45;75.32;100445.44;4960046;28;19925;-63
2021/08/13 06:20:55;;;;;;;28.40;20.58;;;;;;;18.44;75.40;100441.94;4974512;28;20537;-65
2021/08/13 06:23:42;;;;;;;28.25;19.73;;;;;;;18.46;75.39;100439.31;4977964;28;20045;-65
2021/08/13 06:26:30;;;;;;;25.52;18.75;;;;;;;18.45;75.25;100451.53;4963393;28;20129;-64
2021/08/13 06:29:22;;;;;;;28.08;18.67;;;;;;;18.47;75.27;100455.00;4963869;28;20070;-64
2021/08/13 06:32:06;;;;;;;28.65;21.23;;;;;;;18.47;75.41;100462.03;4977853;28;20078;-64
2021/08/13 06:34:50;;;;;;;25.73;19.35;;;;;;;18.49;75.53;100470.75;4978032;28;20204;-63
2021/08/13 06:37:54;;;;;;;26.45;19.13;;;;;;;18.49;75.20;100462.91;4977367;28;20054;-64
2021/08/13 06:40:38;;;;;;;25.35;19.10;;;;;;;18.50;75.53;100459.38;4977508;28;20050;-63
2021/08/13 06:43:21;;;;;;;30.20;20.17;;;;;;;18.50;75.31;100451.50;4977973;28;20419;-63
2021/08/13 06:46:08;;;;;;;27.38;21.15;;;;;;;18.50;75.49;100451.50;4977476;28;20081;-65
2021/08/13 06:48:52;;;;;;;30.52;19.95;;;;;;;18.50;75.27;100454.13;4977081;28;20478;-63
2021/08/13 06:51:38;;;;;;;28.40;19.42;;;;;;;18.50;75.34;100457.63;4977405;28;20069;-64
2021/08/13 06:54:22;;;;;;;26.95;19.10;;;;;;;18.51;75.42;100463.75;4962636;28;20058;-64
2021/08/13 06:57:08;;;;;;;28.38;19.08;;;;;;;18.50;75.37;100464.63;4977421;28;20093;-64
2021/08/13 06:59:52;;;;;;;29.83;19.02;;;;;;;18.50;74.95;100468.13;4977153;28;20101;-64
2021/08/13 07:02:40;;;;;;;26.73;18.17;;;;;;;18.51;75.29;100471.63;4977336;28;20097;-64
2021/08/13 07:05:24;;;;;;;23.40;16.77;;;;;;;18.50;75.31;100475.13;4977052;28;20098;-64
2021/08/13 07:08:12;;;;;;;23.02;17.05;;;;;;;18.50;75.35;100481.22;4977546;28;20093;-64
2021/08/13 07:10:58;;;;;;;21.95;15.43;;;;;;;18.51;75.02;100482.97;4962791;28;20458;-64
2021/08/13 07:13:43;;;;;;;23.02;15.25;;;;;;;18.51;75.18;100484.75;4977209;28;20069;-63
2021/08/13 07:16:32;;;;;;;19.67;13.88;;;;;;;18.50;75.16;100483.84;4977137;28;20545;-64
2021/08/13 07:19:18;;;;;;;18.80;13.70;;;;;;;18.49;75.15;100491.75;4962720;28;20089;-64
2021/08/13 07:22:04;;;;;;;18.83;12.93;;;;;;;18.50;75.14;100494.34;4962480;28;20101;-64
2021/08/13 07:24:47;;;;;;;18.23;12.85;;;;;;;18.48;75.21;100490.88;4976834;28;20150;-64
2021/08/13 07:27:34;;;;;;;18.67;13.93;;;;;;;18.50;75.21;100498.75;4962250;28;20081;-64
2021/08/13 07:30:18;;;;;;;15.40;12.77;;;;;;;18.51;75.05;100508.38;4961881;28;20466;-64
2021/08/13 07:33:05;;;;;;;13.85;11.15;;;;;;;18.50;74.77;100512.72;4976537;28;20053;-63
2021/08/13 07:35:49;;;;;;;18.13;12.25;;;;;;;18.52;74.97;100521.47;4976281;28;20525;-64
2021/08/13 07:38:39;;;;;;;15.85;11.25;;;;;;;18.51;75.06;100521.50;4962264;28;20050;-64
2021/08/13 07:41:24;;;;;;;12.88;10.65;;;;;;;18.51;74.93;100524.13;4976242;28;20581;-63
2021/08/13 07:44:10;;;;;;;16.10;11.65;;;;;;;18.51;74.83;100524.13;4976511;28;20410;-64
2021/08/13 07:46:54;;;;;;;15.02;10.73;;;;;;;18.52;74.69;100531.97;4962079;28;20462;-64
2021/08/13 07:49:39;;;;;;;14.35;11.25;;;;;;;18.52;74.91;100533.72;4976591;28;20085;-64
2021/08/13 07:52:23;;;;;;;14.63;11.23;;;;;;;18.51;75.08;100526.75;4961381;28;20077;-64
2021/08/13 07:55:09;;;;;;;14.48;9.68;;;;;;;18.51;74.79;100527.59;4961957;28;20529;-64
2021/08/13 07:57:53;;;;;;;16.40;10.07;;;;;;;18.52;74.99;100537.22;4962097;28;20402;-64
2021/08/13 08:00:37;;;;;;;12.93;9.40;;;;;;;18.53;75.02;100541.56;4976469;28;20465;-64
2021/08/13 08:03:21;;;;;;;14.98;9.80;;;;;;;18.53;75.00;100535.47;4961634;28;20057;-64
2021/08/13 08:06:05;;;;;;;15.05;10.02;;;;;;;18.52;74.76;100539.84;4976505;28;20069;-64
2021/08/13 08:08:49;;;;;;;11.57;9.32;;;;;;;18.54;75.04;100540.69;4961623;28;20512;-64
2021/08/13 08:11:35;;;;;;;16.50;10.43;;;;;;;18.56;74.80;100535.41;4975709;28;20046;-63
2021/08/13 08:14:20;;;;;;;15.38;9.32;;;;;;;18.56;74.81;100543.28;4975955;28;20061;-65
2021/08/13 08:17:04;;;;;;;13.02;9.90;;;;;;;18.56;74.85;100546.81;4976059;28;20128;-64
2021/08/13 08:19:51;;;;;;;12.50;9.18;;;;;;;18.58;74.86;100554.66;4975474;28;20077;-63
2021/08/13 08:22:36;;;;;;;12.32;8.77;;;;;;;18.58;74.85;100544.16;4961035;28;20096;-64
2021/08/13 08:25:22;;;;;;;10.82;8.68;;;;;;;18.58;74.76;100554.66;4961299;28;20049;-65
2021/08/13 08:28:06;;;;;;;13.98;9.20;;;;;;;18.60;74.75;100552.88;4961332;28;20406;-65
2021/08/13 08:30:53;;;;;;;9.95;7.72;;;;;;;18.62;74.69;100550.22;4975696;28;20089;-65
2021/08/13 08:33:37;;;;;;;10.73;7.85;;;;;;;18.60;74.63;100539.75;4975469;28;20557;-64
2021/08/13 08:36:21;;;;;;;12.98;8.30;;;;;;;18.61;74.77;100549.38;4960943;28;20054;-64
2021/08/13 08:39:06;;;;;;;13.25;8.40;;;;;;;18.62;74.86;100555.47;4975248;28;20087;-64
2021/08/13 08:41:50;;;;;;;;;;;;;;;18.62;74.69;100564.25;4975736;28;20046;-65
2021/08/13 08:44:34;;;;;;;12.73;8.55;;;;;;;18.64;74.53;100577.34;4974890;28;19968;-64
2021/08/13 08:47:19;;;;;;;9.80;7.28;;;;;;;18.64;74.79;100583.47;4975239;28;20070;-64
2021/08/13 08:50:04;;;;;;;9.93;6.95;;;;;;;18.65;74.76;100579.09;4975644;28;20133;-65
2021/08/13 08:52:49;;;;;;;;;;;;;;;18.65;74.59;100571.22;4975462;28;20407;-64
2021/08/13 08:55:33;;;;;;;8.77;6.53;;;;;;;18.67;74.55;100577.31;4974916;28;20341;-63
2021/08/13 08:58:19;;;;;;;8.57;6.53;;;;;;;18.70;74.67;100580.78;4975247;28;20502;-64
2021/08/13 09:01:03;;;;;;;9.68;5.93;;;;;;;18.70;74.75;100565.03;4960626;28;20113;-64
2021/08/13 09:03:50;;;;;;;8.48;6.03;;;;;;;18.74;74.58;100559.75;4975064;28;20066;-64
2021/08/13 09:06:39;;;;;;;8.43;6.15;;;;;;;18.75;74.60;100562.38;4974614;28;20046;-63
2021/08/13 09:09:24;;;;;;;7.35;5.38;;;;;;;18.78;74.46;100559.72;4974694;28;20578;-65
2021/08/13 09:12:08;;;;;;;8.05;5.32;;;;;;;18.80;74.50;100555.31;4975108;28;20048;-64
2021/08/13 09:14:52;;;;;;;;;;;;;;;18.80;74.34;100563.19;4974969;28;20057;-65
2021/08/13 09:17:36;;;;;;;6.07;4.13;;;;;;;18.82;74.56;100577.19;4974856;28;20045;-64
2021/08/13 09:20:37;;;;;;;6.75;4.32;;;;;;;18.83;74.66;100571.03;4960419;28;20049;-65
2021/08/13 09:23:32;;;;;;;5.63;4.00;;;;;;;18.83;74.29;100565.78;4975073;28;20069;-65
2021/08/13 09:26:20;;;;;;;4.93;3.83;;;;;;;18.85;74.33;100569.28;4960371;28;20050;-65
2021/08/13 09:29:10;;;;;;;7.90;4.20;;;;;;;18.87;74.37;100567.50;4975006;28;20054;-64
2021/08/13 09:31:54;;;;;;;5.38;3.92;;;;;;;18.91;74.25;100567.50;4960481;28;20054;-65
2021/08/13 09:34:39;;;;;;;3.78;3.03;;;;;;;18.93;74.25;100578.81;4974911;28;20046;-65
2021/08/13 09:37:22;;;;;;;;;;;;;;;18.93;74.22;100574.44;4975441;28;20057;-64
2021/08/13 09:40:08;;;;;;;3.93;3.00;;;;;;;18.95;74.21;100574.47;4974558;28;19925;-65
2021/08/13 09:43:01;;;;;;;4.45;2.97;;;;;;;18.97;74.31;100575.31;4974545;28;20462;-64
2021/08/13 09:45:45;;;;;;;3.88;3.20;;;;;;;18.99;74.30;100570.91;4974239;28;20101;-64
2021/08/13 09:48:29;;;;;;;3.92;2.63;;;;;;;19.00;74.20;100576.16;4974396;28;20126;-64
2021/08/13 09:51:34;;;;;;;4.50;2.60;;;;;;;19.01;74.07;100571.78;4960059;28;20102;-64
2021/08/13 09:54:18;;;;;;;4.10;3.10;;;;;;;19.02;74.15;100573.53;4960219;28;20054;-65
2021/08/13 09:57:09;;;;;;;2.95;2.30;;;;;;;19.04;74.24;100576.13;4975641;28;20512;-65
2021/08/13 10:00:02;;;;;;;3.90;2.45;;;;;;;19.05;74.03;100569.97;4963728;28;20578;-64
2021/08/13 10:02:47;;;;;;;3.67;2.20;;;;;;;19.06;74.18;100575.25;4963504;28;20413;-64
2021/08/13 10:05:33;;;;;;;3.47;2.53;;;;;;;19.08;74.04;100572.59;4977540;28;20126;-63
2021/08/13 10:08:17;;;;;;;2.53;2.10;;;;;;;19.09;74.04;100574.31;4978173;28;20050;-64
2021/08/13 10:11:11;;;;;;;7.47;2.22;;;;;;;19.11;74.05;100576.03;4978052;28;20054;-64
2021/08/13 10:13:56;;;;;;;5.53;2.10;;;;;;;19.12;73.97;100569.91;4963868;28;20086;-65
2021/08/13 10:16:40;;;;;;;3.10;2.50;;;;;;;19.14;74.03;100578.63;4978310;28;20049;-65
2021/08/13 10:19:24;;;;;;;3.08;2.28;;;;;;;19.13;73.77;100574.28;4977634;28;20473;-65
2021/08/13 10:22:08;;;;;;;4.07;2.17;;;;;;;19.14;73.96;100577.78;4978004;28;20507;-64
2021/08/13 10:24:52;;;;;;;3.60;2.20;;;;;;;19.16;73.98;100571.63;4963407;28;20050;-64
2021/08/13 10:27:36;;;;;;;3.40;2.22;;;;;;;19.17;73.51;100567.22;4977543;28;20042;-64
2021/08/13 10:30:22;;;;;;;2.90;2.40;;;;;;;19.19;73.78;100567.22;4977670;28;20053;-64
2021/08/13 10:33:07;;;;;;;4.82;3.00;;;;;;;19.19;73.82;100568.06;4963284;28;20098;-64
2021/08/13 10:35:57;;;;;;;3.70;2.30;;;;;;;19.20;73.76;100569.81;4963528;28;20062;-64
2021/08/13 10:38:43;;;;;;;5.60;2.72;;;;;;;19.22;73.74;100569.81;4963102;28;20127;-64
2021/08/13 10:41:30;;;;;;;4.22;3.00;;;;;;;19.22;73.57;100572.44;4963112;28;20058;-64
2021/08/13 10:44:18;;;;;;;2.97;2.40;;;;;;;19.24;73.71;100571.53;4977235;28;20545;-64
2021/08/13 10:47:10;;;;;;;4.40;2.63;;;;;;;19.25;73.83;100572.38;4963187;28;20104;-64
2021/08/13 10:49:57;;;;;;;4.53;2.58;;;;;;;19.26;73.69;100580.25;4962988;28;20118;-63
2021/08/13 10:52:43;;;;;;;3.55;2.60;;;;;;;19.27;73.83;100565.34;4963122;28;20141;-65
2021/08/13 10:55:43;;;;;;;4.25;2.78;;;;;;;19.28;73.53;100581.13;4962817;28;20604;-64
2021/08/13 10:58:36;;;;;;;3.60;2.70;;;;;;;19.29;73.51;100572.34;4977498;28;20054;-63
2021/08/13 11:01:21;;;;;;;4.68;2.50;;;;;;;19.30;73.50;100565.31;4977238;28;20554;-64
2021/08/13 11:04:06;;;;;;;4.97;3.00;;;;;;;19.32;73.55;100568.81;4963029;28;20046;-64
2021/08/13 11:06:52;;;;;;;5.13;2.75;;;;;;;19.33;73.33;100570.56;4962786;28;20054;-65
2021/08/13 11:09:38;;;;;;;5.20;2.88;;;;;;;19.34;73.41;100572.28;4961110;28;20049;-65
2021/08/13 11:12:22;;;;;;;5.22;2.97;;;;;;;19.35;73.41;100567.88;4976653;28;20053;-65
2021/08/13 11:15:06;;;;;;;4.53;3.20;;;;;;;19.36;73.26;100565.25;4962636;28;20057;-65
2021/08/13 11:17:50;;;;;;;4.30;3.03;;;;;;;19.37;73.42;100564.38;4976864;28;20066;-64
2021/08/13 11:20:44;;;;;;;3.58;3.03;;;;;;;19.38;73.40;100567.88;4977054;28;20139;-64
2021/08/13 11:23:29;;;;;;;4.03;3.10;;;;;;;19.36;73.49;100570.53;4977167;28;20411;-65
2021/08/13 11:26:12;;;;;;;7.13;3.22;;;;;;;19.38;73.14;100559.97;4976528;28;20049;-65
2021/08/13 11:29:33;;;;;;;4.78;3.50;;;;;;;19.39;73.32;100566.97;4976732;28;20110;-64
2021/08/13 11:32:17;;;;;;;6.20;3.35;;;;;;;19.39;73.18;100570.47;4962492;28;20203;-64
2021/08/13 11:35:04;;;;;;;5.80;3.55;;;;;;;19.40;73.24;100572.19;4977067;28;20138;-64
2021/08/13 11:37:49;;;;;;;7.38;3.40;;;;;;;19.40;72.99;100569.56;4961964;28;20113;-65
2021/08/13 11:40:33;;;;;;;4.82;3.30;;;;;;;19.41;73.08;100570.47;4976929;28;20105;-65
2021/08/13 11:43:19;;;;;;;4.32;2.92;;;;;;;19.41;73.06;100568.69;4976086;28;20477;-65
2021/08/13 11:46:05;;;;;;;7.15;3.80;;;;;;;19.42;73.04;100567.78;4962026;28;20074;-64
2021/08/13 11:48:54;;;;;;;5.93;3.40;;;;;;;19.44;73.22;100578.31;4962213;28;20398;-64
2021/08/13 11:51:38;;;;;;;5.85;3.50;;;;;;;19.44;73.02;100573.06;4976201;28;20054;-64
2021/08/13 11:54:31;;;;;;;3.60;2.88;;;;;;;19.44;73.01;100576.53;4976542;28;20038;-64
2021/08/13 11:57:16;;;;;;;4.88;3.45;;;;;;;19.45;73.03;100572.16;4961657;28;20466;-64
2021/08/13 12:00:00;;;;;;;3.63;3.10;;;;;;;19.46;72.96;100566.88;4961389;28;20414;-64
2021/08/13 12:02:44;;;;;;;5.90;3.25;;;;;;;19.47;72.97;100566.00;4976085;28;20469;-65
2021/08/13 12:05:32;;;;;;;;;;;;;;;19.48;73.00;100565.09;4976825;28;20038;-65
2021/08/13 12:08:16;;;;;;;4.35;3.30;;;;;;;19.49;72.90;100565.97;4961297;28;19925;-65
2021/08/13 12:11:00;;;;;;;;;;;;;;;19.50;72.87;100556.34;4962007;28;20185;-64
2021/08/13 12:13:44;;;;;;;6.50;3.13;;;;;;;19.54;72.97;100558.03;4961697;28;19968;-65
2021/08/13 12:16:31;;;;;;;6.25;4.05;;;;;;;19.56;72.85;100564.13;4961363;28;20074;-65
2021/08/13 12:19:14;;;;;;;7.85;4.07;;;;;;;19.57;72.63;100568.50;4960898;28;20057;-64
2021/08/13 12:22:04;;;;;;;6.32;3.65;;;;;;;19.58;72.80;100567.59;4961250;28;20521;-65
2021/08/13 12:24:52;;;;;;;8.10;3.53;;;;;;;19.59;72.80;100575.50;4960999;28;20052;-66
2021/08/13 12:27:39;;;;;;;4.57;3.35;;;;;;;19.59;72.72;100572.88;4975687;28;20061;-65
2021/08/13 12:30:23;;;;;;;4.93;3.50;;;;;;;19.60;72.77;100577.22;4961020;28;20426;-65
2021/08/13 12:33:15;;;;;;;7.40;4.03;;;;;;;19.61;72.61;100576.34;4960881;28;20489;-65
2021/08/13 12:35:59;;;;;;;5.45;3.95;;;;;;;19.62;72.59;100577.19;4975568;28;20062;-65
2021/08/13 12:38:43;;;;;;;6.35;4.15;;;;;;;19.62;72.86;100577.19;4975395;28;20521;-65
2021/08/13 12:41:28;;;;;;;5.13;4.07;;;;;;;19.62;72.64;100572.78;4960727;28;20541;-65
2021/08/13 12:44:12;;;;;;;6.22;4.32;;;;;;;19.63;72.68;100569.28;4975791;28;20411;-65